createdAt,value
2019-04-03T00:01:04.042Z,99882.33
2019-04-03T00:02:11.830Z,99879.75
2019-04-03T00:03:17.206Z,99879.31
2019-04-03T00:04:22.075Z,99866.81
2019-04-03T00:05:26.526Z,99878.02
2019-04-03T00:06:31.290Z,99873.25
2019-04-03T00:07:36.181Z,99873.25
2019-04-03T00:08:41.044Z,99852.97
2019-04-03T00:09:45.508Z,99880.20
2019-04-03T00:10:50.271Z,99872.27
2019-04-03T00:11:55.088Z,99862.73
2019-04-03T00:12:59.572Z,99876.20
2019-04-03T00:14:04.096Z,99875.69
2019-04-03T00:15:09.244Z,99875.69
2019-04-03T00:16:15.442Z,99857.92
2019-04-03T00:17:19.860Z,99873.83
2019-04-03T00:18:24.408Z,99873.44
2019-04-03T00:19:29.237Z,99875.25
2019-04-03T00:20:33.987Z,99874.75
2019-04-03T00:21:38.511Z,99873.75
2019-04-03T00:22:45.767Z,99873.75
2019-04-03T00:23:52.291Z,99873.33
2019-04-03T00:24:56.380Z,99878.59
2019-04-03T00:26:01.228Z,99869.05
2019-04-03T00:27:05.819Z,99868.19
2019-04-03T00:28:10.273Z,99868.19
2019-04-03T00:29:16.367Z,99869.17
2019-04-03T00:30:22.505Z,99871.80
2019-04-03T00:31:27.238Z,99863.25
2019-04-03T00:32:31.709Z,99863.87
2019-04-03T00:33:36.706Z,99870.06
2019-04-03T00:34:42.103Z,99870.06
2019-04-03T00:35:46.602Z,99869.99
2019-04-03T00:36:52.910Z,99861.91
2019-04-03T00:37:58.707Z,99861.91
2019-04-03T00:39:04.805Z,99872.27
2019-04-03T00:40:11.373Z,99874.08
2019-04-03T00:41:15.834Z,99873.13
2019-04-03T00:42:20.301Z,99877.38
2019-04-03T00:43:25.320Z,99870.87
2019-04-03T00:44:29.936Z,99868.43
2019-04-03T00:45:34.392Z,99877.82
2019-04-03T00:46:38.843Z,99874.64
2019-04-03T00:47:43.659Z,99878.83
2019-04-03T00:48:48.505Z,99878.83
2019-04-03T00:49:53.016Z,99876.70
2019-04-03T00:50:57.667Z,99880.50
2019-04-03T00:52:02.260Z,99876.51
2019-04-03T00:53:06.775Z,99874.75
2019-04-03T00:54:11.236Z,99871.63
2019-04-03T00:55:15.699Z,99872.99
2019-04-03T00:56:20.454Z,99875.25
2019-04-03T00:57:26.330Z,99877.13
2019-04-03T00:58:42.689Z,99882.05
2019-04-03T00:59:47.520Z,99875.86
2019-04-03T01:00:51.975Z,99875.39
2019-04-03T01:01:57.129Z,99882.88
2019-04-03T01:03:02.735Z,99881.14
2019-04-03T01:04:07.824Z,99878.12
2019-04-03T01:05:12.814Z,99879.50
2019-04-03T01:06:17.335Z,99875.73
2019-04-03T01:07:21.793Z,99878.03
2019-04-03T01:08:29.033Z,99880.34
2019-04-03T01:09:33.058Z,99880.45
2019-04-03T01:10:37.517Z,99883.52
2019-04-03T01:11:41.976Z,99882.70
2019-04-03T01:12:46.582Z,99882.94
2019-04-03T01:13:51.054Z,99857.58
2019-04-03T01:14:55.507Z,99882.55
2019-04-03T01:16:02.080Z,99890.05
2019-04-03T01:17:06.396Z,99887.03
2019-04-03T01:18:10.894Z,99882.34
2019-04-03T01:19:15.687Z,99882.34
2019-04-03T01:20:20.141Z,99881.74
2019-04-03T01:21:24.594Z,99881.74
2019-04-03T01:22:29.054Z,99873.60
2019-04-03T01:23:33.682Z,99883.23
2019-04-03T01:24:38.810Z,99882.45
2019-04-03T01:25:43.819Z,99880.91
2019-04-03T01:26:49.236Z,99877.15
2019-04-03T01:27:54.250Z,99875.29
2019-04-03T01:28:59.123Z,99871.78
2019-04-03T01:30:03.961Z,99869.66
2019-04-03T01:31:08.556Z,99869.86
2019-04-03T01:32:15.509Z,99869.86
2019-04-03T01:33:19.165Z,99872.97
2019-04-03T01:34:23.646Z,99844.21
2019-04-03T01:35:28.170Z,99870.56
2019-04-03T01:36:32.938Z,99851.15
2019-04-03T01:37:37.765Z,99870.62
2019-04-03T01:38:42.223Z,99870.62
2019-04-03T01:39:46.700Z,99865.86
2019-04-03T01:40:51.236Z,99864.16
2019-04-03T01:41:56.664Z,99847.92
2019-04-03T01:43:01.211Z,99847.92
2019-04-03T01:44:05.657Z,99841.85
2019-04-03T01:45:10.136Z,99860.28
2019-04-03T01:46:14.680Z,99860.28
2019-04-03T01:47:19.130Z,99864.75
2019-04-03T01:48:23.587Z,99864.75
2019-04-03T01:49:28.330Z,99856.11
2019-04-03T01:50:33.295Z,99864.08
2019-04-03T01:51:37.760Z,99864.08
2019-04-03T01:52:42.227Z,99857.67
2019-04-03T01:53:46.685Z,99860.44
2019-04-03T01:54:51.531Z,99856.13
2019-04-03T01:55:56.318Z,99857.53
2019-04-03T01:57:00.839Z,99859.33
2019-04-03T01:58:06.547Z,99855.92
2019-04-03T01:59:11.538Z,99856.32
2019-04-03T02:00:16.153Z,99856.32
2019-04-03T02:01:20.672Z,99842.88
2019-04-03T02:02:25.433Z,99851.56
2019-04-03T02:03:30.433Z,99842.88
2019-04-03T02:04:35.187Z,99847.33
2019-04-03T02:05:39.646Z,99845.09
2019-04-03T02:06:44.424Z,99845.40
2019-04-03T02:07:48.866Z,99842.34
2019-04-03T02:08:53.458Z,99841.85
2019-04-03T02:09:58.251Z,99841.85
2019-04-03T02:11:02.895Z,99841.03
2019-04-03T02:12:07.494Z,99838.41
2019-04-03T02:13:11.969Z,99840.21
2019-04-03T02:14:16.425Z,99840.59
2019-04-03T02:15:21.545Z,99834.81
2019-04-03T02:16:26.627Z,99829.77
2019-04-03T02:17:31.138Z,99821.42
2019-04-03T02:18:35.537Z,99826.89
2019-04-03T02:19:40.449Z,99823.00
2019-04-03T02:20:45.222Z,99825.73
2019-04-03T02:21:50.755Z,99820.97
2019-04-03T02:22:55.282Z,99820.97
2019-04-03T02:24:01.167Z,99820.93
2019-04-03T02:25:06.476Z,99819.42
2019-04-03T02:26:10.929Z,99822.81
2019-04-03T02:27:15.383Z,99817.62
2019-04-03T02:28:20.104Z,99815.86
2019-04-03T02:29:24.684Z,99815.05
2019-04-03T02:30:29.354Z,99810.13
2019-04-03T02:31:33.853Z,99810.27
2019-04-03T02:32:38.317Z,99806.91
2019-04-03T02:33:42.765Z,99810.08
2019-04-03T02:34:47.343Z,99812.84
2019-04-03T02:35:52.228Z,99815.08
2019-04-03T02:36:56.720Z,99810.71
2019-04-03T02:38:01.481Z,99804.26
2019-04-03T02:39:06.658Z,99807.84
2019-04-03T02:40:12.093Z,99808.28
2019-04-03T02:41:16.682Z,99809.31
2019-04-03T02:42:21.621Z,99799.45
2019-04-03T02:43:26.465Z,99803.78
2019-04-03T02:44:30.895Z,99793.69
2019-04-03T02:45:35.545Z,99801.11
2019-04-03T02:46:40.000Z,99797.28
2019-04-03T02:47:44.455Z,99795.09
2019-04-03T02:48:49.003Z,99793.69
2019-04-03T02:49:53.439Z,99802.81
2019-04-03T02:50:58.865Z,99800.23
2019-04-03T02:52:03.759Z,99804.61
2019-04-03T02:53:08.599Z,99806.92
2019-04-03T02:54:34.427Z,99805.17
2019-04-03T02:55:39.026Z,99806.40
2019-04-03T02:56:45.207Z,99811.19
2019-04-03T02:57:49.975Z,99799.45
2019-04-03T02:58:55.379Z,99803.13
2019-04-03T03:00:00.666Z,99800.23
2019-04-03T03:01:07.961Z,99803.70
2019-04-03T03:02:13.255Z,99798.83
2019-04-03T03:03:18.643Z,99807.95
2019-04-03T03:04:23.767Z,99805.39
2019-04-03T03:05:29.342Z,99808.34
2019-04-03T03:06:34.178Z,99800.95
2019-04-03T03:07:38.841Z,99801.69
2019-04-03T03:08:44.150Z,99801.30
2019-04-03T03:09:48.674Z,99809.20
2019-04-03T03:10:53.622Z,99803.15
2019-04-03T03:11:59.614Z,99808.94
2019-04-03T03:13:04.734Z,99808.94
2019-04-03T03:14:10.281Z,99808.92
2019-04-03T03:15:15.053Z,99802.37
2019-04-03T03:16:19.871Z,99806.85
2019-04-03T03:17:24.796Z,99810.30
2019-04-03T03:18:30.380Z,99807.30
2019-04-03T03:19:34.925Z,99805.98
2019-04-03T03:20:41.339Z,99806.18
2019-04-03T03:21:47.052Z,99802.75
2019-04-03T03:22:52.355Z,99802.75
2019-04-03T03:23:57.750Z,99802.84
2019-04-03T03:25:02.961Z,99801.09
2019-04-03T03:26:07.574Z,99786.98
2019-04-03T03:27:12.382Z,99786.98
2019-04-03T03:28:17.199Z,99797.66
2019-04-03T03:29:26.319Z,99803.37
2019-04-03T03:30:42.233Z,99804.30
2019-04-03T03:32:01.508Z,99807.27
2019-04-03T03:32:43.417Z,99809.97
2019-04-03T03:33:48.968Z,99808.72
2019-04-03T03:35:06.961Z,99800.81
2019-04-03T03:36:01.453Z,99799.94
2019-04-03T03:37:06.810Z,99800.70
2019-04-03T03:38:12.802Z,99797.75
2019-04-03T03:39:17.895Z,99797.75
2019-04-03T03:40:22.708Z,99798.28
2019-04-03T03:41:27.459Z,99803.58
2019-04-03T03:42:32.758Z,99800.62
2019-04-03T03:43:38.977Z,99803.67
2019-04-03T03:44:45.920Z,99795.28
2019-04-03T03:45:52.575Z,99799.50
2019-04-03T03:47:01.477Z,99799.65
2019-04-03T03:48:08.563Z,99802.27
2019-04-03T03:49:16.260Z,99805.42
2019-04-03T03:50:24.137Z,99805.43
2019-04-03T03:51:29.792Z,99805.09
2019-04-03T03:52:36.673Z,99796.83
2019-04-03T03:53:44.781Z,99803.39
2019-04-03T03:54:51.124Z,99804.34
2019-04-03T03:55:58.685Z,99804.34
2019-04-03T03:57:03.940Z,99797.41
2019-04-03T03:58:12.530Z,99797.95
2019-04-03T03:59:18.799Z,99799.27
2019-04-03T04:00:24.367Z,99799.31
2019-04-03T04:01:31.679Z,99794.52
2019-04-03T04:02:37.892Z,99792.73
2019-04-03T04:03:43.389Z,99794.04
2019-04-03T04:04:49.439Z,99791.37
2019-04-03T04:05:56.241Z,99787.00
2019-04-03T04:07:04.446Z,99788.73
2019-04-03T04:08:10.795Z,99791.64
2019-04-03T04:09:17.127Z,99780.69
2019-04-03T04:10:25.187Z,99786.70
2019-04-03T04:11:31.067Z,99783.16
2019-04-03T04:12:39.800Z,99782.96
2019-04-03T04:13:41.737Z,99785.09
2019-04-03T04:14:46.453Z,99790.28
2019-04-03T04:15:51.064Z,99777.23
2019-04-03T04:16:56.214Z,99785.33
2019-04-03T04:18:00.687Z,99780.14
2019-04-03T04:19:05.727Z,99791.64
2019-04-03T04:20:11.064Z,99791.73
2019-04-03T04:21:21.122Z,99795.25
2019-04-03T04:22:27.068Z,99793.12
2019-04-03T04:23:32.785Z,99799.22
2019-04-03T04:24:37.396Z,99802.77
2019-04-03T04:25:43.650Z,99789.67
2019-04-03T04:26:49.885Z,99788.80
2019-04-03T04:27:54.622Z,99788.80
2019-04-03T04:28:59.806Z,99791.32
2019-04-03T04:30:06.180Z,99790.98
2019-04-03T04:31:12.980Z,99790.42
2019-04-03T04:32:17.358Z,99780.95
2019-04-03T04:33:21.957Z,99785.26
2019-04-03T04:34:26.449Z,99781.33
2019-04-03T04:35:31.313Z,99774.77
2019-04-03T04:36:35.795Z,99767.80
2019-04-03T04:37:40.782Z,99770.03
2019-04-03T04:38:45.315Z,99773.61
2019-04-03T04:39:49.780Z,99762.12
2019-04-03T04:40:54.234Z,99767.69
2019-04-03T04:41:58.791Z,99765.11
2019-04-03T04:43:04.282Z,99774.28
2019-04-03T04:44:09.968Z,99775.53
2019-04-03T04:45:14.839Z,99785.19
2019-04-03T04:46:19.302Z,99787.81
2019-04-03T04:47:24.090Z,99787.81
2019-04-03T04:48:28.763Z,99782.48
2019-04-03T04:49:33.324Z,99790.28
2019-04-03T04:50:37.786Z,99786.36
2019-04-03T04:51:42.448Z,99796.10
2019-04-03T04:52:47.110Z,99801.78
2019-04-03T04:53:51.575Z,99800.47
2019-04-03T04:54:56.333Z,99793.59
2019-04-03T04:56:00.827Z,99795.39
2019-04-03T04:57:06.909Z,99787.37
2019-04-03T04:58:12.252Z,99786.11
2019-04-03T04:59:16.906Z,99783.55
2019-04-03T05:00:21.348Z,99779.77
2019-04-03T05:01:26.139Z,99779.73
2019-04-03T05:02:30.630Z,99779.63
2019-04-03T05:03:35.418Z,99785.34
2019-04-03T05:04:39.884Z,99789.17
2019-04-03T05:05:44.640Z,99792.29
2019-04-03T05:06:49.072Z,99793.55
2019-04-03T05:07:53.537Z,99798.73
2019-04-03T05:08:58.075Z,99804.02
2019-04-03T05:10:03.992Z,99811.39
2019-04-03T05:11:09.307Z,99810.95
2019-04-03T05:12:13.875Z,99814.00
2019-04-03T05:13:18.614Z,99817.94
2019-04-03T05:14:23.106Z,99814.92
2019-04-03T05:15:27.841Z,99812.25
2019-04-03T05:16:32.389Z,99801.34
2019-04-03T05:17:36.853Z,99779.81
2019-04-03T05:18:41.403Z,99779.81
2019-04-03T05:19:46.810Z,99796.20
2019-04-03T05:20:52.012Z,99790.02
2019-04-03T05:21:56.664Z,99788.70
2019-04-03T05:23:01.142Z,99790.98
2019-04-03T05:24:13.111Z,99791.78
2019-04-03T05:25:12.079Z,99792.29
2019-04-03T05:26:16.635Z,99783.65
2019-04-03T05:27:21.093Z,99782.64
2019-04-03T05:28:26.155Z,99780.83
2019-04-03T05:29:30.780Z,99779.63
2019-04-03T05:30:37.532Z,99764.45
2019-04-03T05:31:41.783Z,99764.45
2019-04-03T05:32:47.597Z,99785.53
2019-04-03T05:33:52.123Z,99776.45
2019-04-03T05:34:57.831Z,99773.73
2019-04-03T05:36:02.356Z,99776.27
2019-04-03T05:37:06.862Z,99785.09
2019-04-03T05:38:11.322Z,99778.94
2019-04-03T05:39:15.791Z,99790.42
2019-04-03T05:40:21.222Z,99789.66
2019-04-03T05:41:28.361Z,99787.87
2019-04-03T05:42:32.588Z,99787.00
2019-04-03T05:43:37.052Z,99787.87
2019-04-03T05:44:41.864Z,99786.13
2019-04-03T05:45:46.420Z,99782.73
2019-04-03T05:46:50.866Z,99785.88
2019-04-03T05:47:55.397Z,99783.22
2019-04-03T05:49:00.125Z,99790.98
2019-04-03T05:50:06.758Z,99787.97
2019-04-03T05:51:11.215Z,99794.03
2019-04-03T05:52:16.069Z,99793.09
2019-04-03T05:53:20.513Z,99798.16
2019-04-03T05:54:25.160Z,99791.88
2019-04-03T05:55:29.911Z,99795.66
2019-04-03T05:56:34.445Z,99795.56
2019-04-03T05:57:39.090Z,99799.45
2019-04-03T05:58:54.590Z,99802.84
2019-04-03T05:59:59.500Z,99801.66
2019-04-03T06:01:04.125Z,99806.47
2019-04-03T06:02:14.125Z,99801.50
2019-04-03T06:03:08.235Z,99798.21
2019-04-03T06:04:13.018Z,99799.75
2019-04-03T06:05:19.271Z,99798.67
2019-04-03T06:06:24.062Z,99799.20
2019-04-03T06:07:28.547Z,99795.94
2019-04-03T06:08:34.758Z,99801.58
2019-04-03T06:09:39.497Z,99797.54
2019-04-03T06:10:44.016Z,99797.31
2019-04-03T06:11:48.509Z,99796.81
2019-04-03T06:12:52.995Z,99801.19
2019-04-03T06:13:57.471Z,99804.96
2019-04-03T06:15:02.021Z,99804.96
2019-04-03T06:16:07.033Z,99805.06
2019-04-03T06:17:12.243Z,99802.41
2019-04-03T06:18:17.989Z,99798.41
2019-04-03T06:19:22.598Z,99799.33
2019-04-03T06:20:27.056Z,99800.64
2019-04-03T06:21:31.513Z,99800.64
2019-04-03T06:22:36.004Z,99803.52
2019-04-03T06:23:40.696Z,99792.37
2019-04-03T06:24:45.205Z,99792.37
2019-04-03T06:25:50.205Z,99794.27
2019-04-03T06:26:54.913Z,99795.09
2019-04-03T06:27:59.714Z,99792.66
2019-04-03T06:29:07.216Z,99788.92
2019-04-03T06:30:11.094Z,99774.17
2019-04-03T06:31:15.554Z,99774.17
2019-04-03T06:32:20.368Z,99787.70
2019-04-03T06:33:24.951Z,99788.16
2019-04-03T06:34:29.724Z,99789.47
2019-04-03T06:35:35.179Z,99782.91
2019-04-03T06:36:39.849Z,99782.91
2019-04-03T06:37:44.469Z,99783.77
2019-04-03T06:38:48.953Z,99769.16
2019-04-03T06:39:53.709Z,99778.12
2019-04-03T06:40:58.592Z,99778.12
2019-04-03T06:42:03.259Z,99779.41
2019-04-03T06:43:07.767Z,99779.41
2019-04-03T06:44:12.236Z,99776.27
2019-04-03T06:45:16.990Z,99775.64
2019-04-03T06:46:21.439Z,99775.64
2019-04-03T06:47:26.206Z,99775.44
2019-04-03T06:48:30.715Z,99770.52
2019-04-03T06:49:35.632Z,99770.52
2019-04-03T06:50:40.204Z,99761.59
2019-04-03T06:51:44.757Z,99772.26
2019-04-03T06:52:49.175Z,99770.52
2019-04-03T06:53:53.677Z,99776.41
2019-04-03T06:54:58.402Z,99750.69
2019-04-03T06:56:03.304Z,99777.77
2019-04-03T06:57:08.118Z,99777.77
2019-04-03T06:58:12.831Z,99774.52
2019-04-03T06:59:17.479Z,99769.45
2019-04-03T07:00:23.505Z,99768.08
2019-04-03T07:01:28.051Z,99767.68
2019-04-03T07:02:32.526Z,99764.40
2019-04-03T07:03:37.021Z,99769.22
2019-04-03T07:04:41.490Z,99769.22
2019-04-03T07:05:46.322Z,99762.32
2019-04-03T07:06:51.103Z,99762.32
2019-04-03T07:07:55.590Z,99768.61
2019-04-03T07:09:00.077Z,99772.27
2019-04-03T07:10:08.864Z,99770.67
2019-04-03T07:11:22.745Z,99767.84
2019-04-03T07:12:18.560Z,99758.14
2019-04-03T07:13:23.062Z,99764.69
2019-04-03T07:14:27.550Z,99769.38
2019-04-03T07:15:32.010Z,99768.67
2019-04-03T07:16:38.594Z,99767.36
2019-04-03T07:17:42.644Z,99767.33
2019-04-03T07:18:47.117Z,99769.48
2019-04-03T07:19:51.905Z,99769.33
2019-04-03T07:20:56.827Z,99774.35
2019-04-03T07:22:01.303Z,99766.15
2019-04-03T07:23:05.771Z,99767.66
2019-04-03T07:24:10.265Z,99767.11
2019-04-03T07:25:14.775Z,99768.47
2019-04-03T07:26:19.200Z,99770.15
2019-04-03T07:27:23.985Z,99776.77
2019-04-03T07:28:30.407Z,99770.59
2019-04-03T07:29:34.971Z,99768.52
2019-04-03T07:30:39.405Z,99773.58
2019-04-03T07:31:44.181Z,99777.53
2019-04-03T07:32:49.614Z,99770.46
2019-04-03T07:33:55.937Z,99769.35
2019-04-03T07:35:01.242Z,99767.05
2019-04-03T07:36:05.826Z,99770.30
2019-04-03T07:37:10.244Z,99764.13
2019-04-03T07:38:15.062Z,99770.55
2019-04-03T07:39:19.935Z,99771.38
2019-04-03T07:40:24.497Z,99771.91
2019-04-03T07:41:29.042Z,99776.83
2019-04-03T07:42:33.522Z,99778.06
2019-04-03T07:43:38.342Z,99773.64
2019-04-03T07:44:42.835Z,99774.05
2019-04-03T07:45:47.671Z,99777.63
2019-04-03T07:46:54.769Z,99778.33
2019-04-03T07:47:58.598Z,99774.95
2019-04-03T07:49:03.141Z,99778.13
2019-04-03T07:50:11.233Z,99785.59
2019-04-03T07:51:15.445Z,99784.88
2019-04-03T07:52:19.893Z,99789.11
2019-04-03T07:53:24.362Z,99784.50
2019-04-03T07:54:29.036Z,99790.80
2019-04-03T07:55:34.843Z,99786.53
2019-04-03T07:56:40.278Z,99788.45
2019-04-03T07:57:44.738Z,99784.31
2019-04-03T07:58:49.199Z,99783.05
2019-04-03T07:59:53.687Z,99782.24
2019-04-03T08:00:58.158Z,99783.70
2019-04-03T08:02:03.161Z,99786.97
2019-04-03T08:03:07.652Z,99782.38
2019-04-03T08:04:15.315Z,99788.31
2019-04-03T08:05:18.494Z,99788.97
2019-04-03T08:06:23.610Z,99781.53
2019-04-03T08:07:28.284Z,99783.43
2019-04-03T08:08:33.033Z,99790.03
2019-04-03T08:09:37.790Z,99792.27
2019-04-03T08:10:42.275Z,99790.95
2019-04-03T08:11:46.737Z,99787.02
2019-04-03T08:12:51.545Z,99789.05
2019-04-03T08:13:56.012Z,99785.83
2019-04-03T08:15:00.879Z,99785.88
2019-04-03T08:16:05.412Z,99789.00
2019-04-03T08:17:09.911Z,99784.90
2019-04-03T08:18:14.352Z,99781.98
2019-04-03T08:19:18.815Z,99785.30
2019-04-03T08:20:24.019Z,99790.10
2019-04-03T08:21:30.530Z,99783.92
2019-04-03T08:22:35.777Z,99784.17
2019-04-03T08:23:40.661Z,99781.90
2019-04-03T08:24:45.122Z,99778.28
2019-04-03T08:25:49.603Z,99781.71
2019-04-03T08:26:54.524Z,99782.59
2019-04-03T08:28:00.023Z,99776.75
2019-04-03T08:29:04.885Z,99774.69
2019-04-03T08:30:09.800Z,99771.07
2019-04-03T08:31:14.549Z,99767.64
2019-04-03T08:32:19.010Z,99768.06
2019-04-03T08:33:26.282Z,99758.70
2019-04-03T08:34:31.735Z,99767.86
2019-04-03T08:35:36.143Z,99763.16
2019-04-03T08:36:40.941Z,99761.59
2019-04-03T08:37:45.694Z,99756.16
2019-04-03T08:38:50.175Z,99758.20
2019-04-03T08:39:57.394Z,99763.53
2019-04-03T08:41:03.530Z,99757.11
2019-04-03T08:42:07.232Z,99758.27
2019-04-03T08:43:11.898Z,99757.95
2019-04-03T08:44:16.693Z,99759.17
2019-04-03T08:45:22.258Z,99760.73
2019-04-03T08:46:26.659Z,99763.38
2019-04-03T08:47:31.122Z,99762.75
2019-04-03T08:48:35.585Z,99765.34
2019-04-03T08:49:40.049Z,99766.16
2019-04-03T08:50:44.601Z,99760.35
2019-04-03T08:51:49.066Z,99756.67
2019-04-03T08:52:53.526Z,99758.03
2019-04-03T08:53:58.289Z,99761.05
2019-04-03T08:55:03.101Z,99761.66
2019-04-03T08:56:07.834Z,99758.30
2019-04-03T08:57:12.669Z,99763.78
2019-04-03T08:58:17.194Z,99765.05
2019-04-03T08:59:21.802Z,99760.89
2019-04-03T09:00:26.570Z,99758.11
2019-04-03T09:01:31.299Z,99762.02
2019-04-03T09:02:35.756Z,99754.38
2019-04-03T09:03:40.221Z,99752.12
2019-04-03T09:04:47.495Z,99754.94
2019-04-03T09:05:52.032Z,99751.06
2019-04-03T09:06:57.024Z,99754.55
2019-04-03T09:08:01.484Z,99752.98
2019-04-03T09:09:09.318Z,99754.05
2019-04-03T09:10:14.767Z,99750.20
2019-04-03T09:11:19.550Z,99741.41
2019-04-03T09:12:24.237Z,99739.20
2019-04-03T09:13:28.961Z,99738.41
2019-04-03T09:14:33.717Z,99740.75
2019-04-03T09:15:38.480Z,99730.76
2019-04-03T09:16:43.045Z,99733.20
2019-04-03T09:17:47.505Z,99726.09
2019-04-03T09:18:51.975Z,99730.45
2019-04-03T09:19:57.350Z,99723.12
2019-04-03T09:21:01.975Z,99723.56
2019-04-03T09:22:06.728Z,99716.06
2019-04-03T09:23:11.191Z,99714.73
2019-04-03T09:24:15.932Z,99715.56
2019-04-03T09:25:20.696Z,99722.45
2019-04-03T09:26:25.408Z,99718.93
2019-04-03T09:27:30.073Z,99711.97
2019-04-03T09:28:35.234Z,99704.73
2019-04-03T09:29:39.680Z,99707.55
2019-04-03T09:30:46.817Z,99702.34
2019-04-03T09:31:53.120Z,99702.81
2019-04-03T09:32:59.888Z,99705.91
2019-04-03T09:34:04.292Z,99701.92
2019-04-03T09:35:09.396Z,99696.31
2019-04-03T09:36:14.159Z,99698.91
2019-04-03T09:37:18.835Z,99698.38
2019-04-03T09:38:23.274Z,99696.64
2019-04-03T09:39:27.733Z,99691.55
2019-04-03T09:40:32.202Z,99694.55
2019-04-03T09:41:36.688Z,99684.47
2019-04-03T09:42:41.438Z,99682.83
2019-04-03T09:43:45.896Z,99679.59
2019-04-03T09:44:50.366Z,99682.38
2019-04-03T09:45:55.156Z,99681.41
2019-04-03T09:47:02.927Z,99681.49
2019-04-03T09:48:06.309Z,99679.23
2019-04-03T09:49:10.776Z,99671.06
2019-04-03T09:50:17.039Z,99680.97
2019-04-03T09:51:22.773Z,99680.09
2019-04-03T09:52:37.982Z,99676.03
2019-04-03T09:53:34.394Z,99665.11
2019-04-03T09:54:39.403Z,99665.75
2019-04-03T09:55:43.880Z,99673.18
2019-04-03T09:56:57.784Z,99666.82
2019-04-03T09:57:54.526Z,99663.61
2019-04-03T09:58:59.319Z,99664.18
2019-04-03T10:00:10.586Z,99655.02
2019-04-03T10:01:17.943Z,99649.03
2019-04-03T10:02:22.267Z,99655.14
2019-04-03T10:03:27.017Z,99656.29
2019-04-03T10:04:31.479Z,99657.62
2019-04-03T10:05:36.010Z,99650.18
2019-04-03T10:06:40.511Z,99651.12
2019-04-03T10:07:46.061Z,99655.40
2019-04-03T10:08:50.665Z,99653.45
2019-04-03T10:09:55.128Z,99650.66
2019-04-03T10:10:59.608Z,99647.66
2019-04-03T10:12:04.377Z,99642.27
2019-04-03T10:13:08.876Z,99643.44
2019-04-03T10:14:13.333Z,99640.93
2019-04-03T10:15:19.124Z,99635.53
2019-04-03T10:16:24.244Z,99640.30
2019-04-03T10:17:29.018Z,99643.37
2019-04-03T10:18:33.480Z,99641.47
2019-04-03T10:19:38.110Z,99637.72
2019-04-03T10:20:43.108Z,99635.39
2019-04-03T10:21:47.563Z,99638.70
2019-04-03T10:22:52.028Z,99642.63
2019-04-03T10:23:57.711Z,99631.17
2019-04-03T10:25:05.101Z,99638.11
2019-04-03T10:26:09.609Z,99636.23
2019-04-03T10:27:14.533Z,99633.66
2019-04-03T10:28:19.265Z,99631.07
2019-04-03T10:29:24.074Z,99630.29
2019-04-03T10:30:28.806Z,99636.47
2019-04-03T10:31:33.268Z,99634.48
2019-04-03T10:32:37.916Z,99625.83
2019-04-03T10:33:42.372Z,99634.45
2019-04-03T10:34:46.838Z,99627.28
2019-04-03T10:35:52.372Z,99632.77
2019-04-03T10:36:57.037Z,99631.66
2019-04-03T10:38:01.512Z,99632.91
2019-04-03T10:39:09.495Z,99626.61
2019-04-03T10:40:15.541Z,99628.12
2019-04-03T10:41:20.517Z,99626.89
2019-04-03T10:42:25.278Z,99618.28
2019-04-03T10:43:30.426Z,99617.08
2019-04-03T10:44:35.256Z,99625.52
2019-04-03T10:45:40.720Z,99622.80
2019-04-03T10:46:45.745Z,99620.18
2019-04-03T10:47:50.200Z,99625.58
2019-04-03T10:48:54.915Z,99616.21
2019-04-03T10:49:59.671Z,99612.31
2019-04-03T10:51:04.818Z,99613.64
2019-04-03T10:52:09.545Z,99608.81
2019-04-03T10:53:15.582Z,99616.19
2019-04-03T10:54:21.905Z,99620.52
2019-04-03T10:55:28.376Z,99623.03
2019-04-03T10:56:32.951Z,99617.70
2019-04-03T10:57:37.504Z,99618.73
2019-04-03T10:58:43.610Z,99614.10
2019-04-03T10:59:53.510Z,99612.45
2019-04-03T11:00:57.210Z,99608.34
2019-04-03T11:02:01.941Z,99601.41
2019-04-03T11:03:06.725Z,99606.24
2019-04-03T11:04:11.459Z,99600.55
2019-04-03T11:05:17.272Z,99606.34
2019-04-03T11:06:21.732Z,99604.95
2019-04-03T11:07:26.227Z,99600.47
2019-04-03T11:08:30.690Z,99599.70
2019-04-03T11:09:35.159Z,99598.48
2019-04-03T11:10:39.946Z,99602.38
2019-04-03T11:11:44.411Z,99603.03
2019-04-03T11:12:48.890Z,99599.96
2019-04-03T11:13:53.351Z,99598.29
2019-04-03T11:14:57.813Z,99600.22
2019-04-03T11:16:02.390Z,99596.66
2019-04-03T11:17:07.148Z,99591.47
2019-04-03T11:18:11.596Z,99595.73
2019-04-03T11:19:16.061Z,99595.47
2019-04-03T11:20:20.884Z,99593.06
2019-04-03T11:21:25.636Z,99591.68
2019-04-03T11:22:40.370Z,99590.66
2019-04-03T11:23:42.263Z,99587.97
2019-04-03T11:24:44.055Z,99587.31
2019-04-03T11:25:48.573Z,99584.79
2019-04-03T11:26:53.200Z,99577.02
2019-04-03T11:27:57.695Z,99580.45
2019-04-03T11:29:02.789Z,99575.82
2019-04-03T11:30:12.202Z,99575.72
2019-04-03T11:31:25.357Z,99580.33
2019-04-03T11:32:23.722Z,99584.38
2019-04-03T11:33:28.183Z,99580.67
2019-04-03T11:34:32.645Z,99580.95
2019-04-03T11:35:37.479Z,99575.16
2019-04-03T11:36:42.303Z,99582.81
2019-04-03T11:37:46.763Z,99574.63
2019-04-03T11:38:51.248Z,99580.93
2019-04-03T11:40:02.436Z,99576.45
2019-04-03T11:41:12.053Z,99573.36
2019-04-03T11:42:08.037Z,99576.73
2019-04-03T11:43:12.671Z,99578.96
2019-04-03T11:44:17.209Z,99574.75
2019-04-03T11:45:22.445Z,99583.42
2019-04-03T11:46:26.873Z,99575.16
2019-04-03T11:47:31.338Z,99575.58
2019-04-03T11:48:35.829Z,99568.45
2019-04-03T11:49:40.660Z,99567.94
2019-04-03T11:50:45.313Z,99563.36
2019-04-03T11:51:49.857Z,99576.73
2019-04-03T11:52:54.342Z,99568.29
2019-04-03T11:53:59.088Z,99565.33
2019-04-03T11:55:04.620Z,99561.72
2019-04-03T11:56:09.048Z,99561.80
2019-04-03T11:57:14.012Z,99559.31
2019-04-03T11:58:21.135Z,99554.50
2019-04-03T11:59:26.207Z,99551.02
2019-04-03T12:00:34.751Z,99555.95
2019-04-03T12:01:39.216Z,99551.34
2019-04-03T12:02:44.761Z,99553.98
2019-04-03T12:03:51.491Z,99554.59
2019-04-03T12:04:56.036Z,99552.05
2019-04-03T12:06:00.500Z,99550.30
2019-04-03T12:07:05.043Z,99543.89
2019-04-03T12:08:11.899Z,99547.31
2019-04-03T12:09:16.207Z,99549.59
2019-04-03T12:10:20.695Z,99548.63
2019-04-03T12:11:25.438Z,99544.94
2019-04-03T12:12:30.048Z,99542.86
2019-04-03T12:13:34.524Z,99541.77
2019-04-03T12:14:39.102Z,99548.11
2019-04-03T12:15:43.528Z,99543.70
2019-04-03T12:16:48.181Z,99542.43
2019-04-03T12:17:52.629Z,99539.83
2019-04-03T12:18:57.164Z,99540.27
2019-04-03T12:20:02.332Z,99530.75
2019-04-03T12:21:09.886Z,99532.89
2019-04-03T12:22:13.235Z,99536.55
2019-04-03T12:23:18.080Z,99539.50
2019-04-03T12:24:22.959Z,99534.49
2019-04-03T12:25:27.399Z,99531.61
2019-04-03T12:26:31.927Z,99529.41
2019-04-03T12:27:36.826Z,99526.41
2019-04-03T12:28:41.885Z,99529.43
2019-04-03T12:29:46.456Z,99533.25
2019-04-03T12:30:50.949Z,99531.22
2019-04-03T12:31:55.417Z,99522.74
2019-04-03T12:33:00.009Z,99526.90
2019-04-03T12:34:06.727Z,99524.20
2019-04-03T12:35:11.747Z,99521.92
2019-04-03T12:36:16.252Z,99520.19
2019-04-03T12:37:20.712Z,99518.02
2019-04-03T12:38:25.491Z,99517.09
2019-04-03T12:39:30.047Z,99518.70
2019-04-03T12:40:34.671Z,99521.11
2019-04-03T12:41:39.218Z,99512.82
2019-04-03T12:42:44.496Z,99514.19
2019-04-03T12:43:50.029Z,99517.31
2019-04-03T12:44:55.915Z,99507.36